createdAt,value
2022-09-30T00:01:03.137Z,4.60
2022-09-30T00:02:36.991Z,4.60
2022-09-30T00:04:16.589Z,4.60
2022-09-30T00:05:55.435Z,4.60
2022-09-30T00:07:28.843Z,4.50
2022-09-30T00:09:03.355Z,4.50
2022-09-30T00:10:38.070Z,4.50
2022-09-30T00:12:11.559Z,4.50
2022-09-30T00:13:47.802Z,4.50
2022-09-30T00:15:21.358Z,4.50
2022-09-30T00:16:54.584Z,4.50
2022-09-30T00:18:28.678Z,4.50
2022-09-30T00:20:02.948Z,4.50
2022-09-30T00:21:37.211Z,4.40
2022-09-30T00:23:10.853Z,4.40
2022-09-30T00:24:44.203Z,4.40
2022-09-30T00:26:21.834Z,4.30
2022-09-30T00:27:55.402Z,4.30
2022-09-30T00:29:28.762Z,4.40
2022-09-30T00:31:05.213Z,4.30
2022-09-30T00:32:39.173Z,4.30
2022-09-30T00:34:13.126Z,4.30
2022-09-30T00:35:46.367Z,4.20
2022-09-30T00:37:19.604Z,4.20
2022-09-30T00:38:52.070Z,4.20
2022-09-30T00:40:25.266Z,4.20
2022-09-30T00:42:03.385Z,4.20
2022-09-30T00:43:43.365Z,4.10
2022-09-30T00:45:17.929Z,4.10
2022-09-30T00:46:50.461Z,4.10
2022-09-30T00:48:37.516Z,4.10
2022-09-30T00:50:22.732Z,4.10
2022-09-30T00:51:58.710Z,4.00
2022-09-30T00:53:40.356Z,4.00
2022-09-30T00:55:28.272Z,4.00
2022-09-30T00:57:08.421Z,4.00
2022-09-30T00:58:48.024Z,3.90
2022-09-30T01:00:24.226Z,3.90
2022-09-30T01:02:05.108Z,3.90
2022-09-30T01:03:46.858Z,3.80
2022-09-30T01:05:23.418Z,3.80
2022-09-30T01:07:06.869Z,3.80
2022-09-30T01:08:46.716Z,3.80
2022-09-30T01:10:22.990Z,3.80
2022-09-30T01:12:00.982Z,3.70
2022-09-30T01:13:41.160Z,3.70
2022-09-30T01:15:17.325Z,3.70
2022-09-30T01:17:09.060Z,3.70
2022-09-30T01:19:38.968Z,3.70
2022-09-30T01:21:52.254Z,3.60
2022-09-30T01:24:31.542Z,3.60
2022-09-30T01:26:36.261Z,3.60
2022-09-30T01:28:47.709Z,3.60
2022-09-30T01:30:23.227Z,3.60
2022-09-30T01:32:08.030Z,3.50
2022-09-30T01:33:53.541Z,3.50
2022-09-30T01:35:39.430Z,3.50
2022-09-30T01:37:25.690Z,3.50
2022-09-30T01:39:18.669Z,3.50
2022-09-30T01:41:06.621Z,3.50
2022-09-30T01:42:56.026Z,3.40
2022-09-30T01:44:41.446Z,3.40
2022-09-30T01:46:28.444Z,3.40
2022-09-30T01:48:12.470Z,3.40
2022-09-30T01:49:58.809Z,3.40
2022-09-30T01:51:43.106Z,3.40
2022-09-30T01:53:28.716Z,3.30
2022-09-30T01:55:09.794Z,3.30
2022-09-30T01:56:48.646Z,3.30
2022-09-30T01:58:39.723Z,3.30
2022-09-30T02:00:15.283Z,3.20
2022-09-30T02:01:57.936Z,3.20
2022-09-30T02:03:41.186Z,3.20
2022-09-30T02:05:22.915Z,3.20
2022-09-30T02:07:04.449Z,3.20
2022-09-30T02:08:46.817Z,3.20
2022-09-30T02:10:28.624Z,3.20
2022-09-30T02:12:07.966Z,3.20
2022-09-30T02:13:49.742Z,3.20
2022-09-30T02:15:29.034Z,3.10
2022-09-30T02:17:08.563Z,3.10
2022-09-30T02:18:47.404Z,3.10
2022-09-30T02:20:25.780Z,3.10
2022-09-30T02:22:06.110Z,3.10
2022-09-30T02:23:45.718Z,3.00
2022-09-30T02:25:25.973Z,3.10
2022-09-30T02:27:05.016Z,3.10
2022-09-30T02:28:45.489Z,3.00
2022-09-30T02:30:20.118Z,3.00
2022-09-30T02:31:59.197Z,3.00
2022-09-30T02:33:39.447Z,3.00
2022-09-30T02:35:23.148Z,3.00
2022-09-30T02:37:05.069Z,3.00
2022-09-30T02:38:44.954Z,3.00
2022-09-30T02:40:26.813Z,3.00
2022-09-30T02:42:09.078Z,3.00
2022-09-30T02:43:43.371Z,2.90
2022-09-30T02:45:23.454Z,3.00
2022-09-30T02:47:08.215Z,2.90
2022-09-30T02:48:49.691Z,2.90
2022-09-30T02:50:35.237Z,2.90
2022-09-30T02:52:20.889Z,2.90
2022-09-30T02:54:04.645Z,2.90
2022-09-30T02:56:00.833Z,2.90
2022-09-30T02:57:46.662Z,2.90
2022-09-30T03:01:46.102Z,2.80
2022-09-30T03:03:26.190Z,2.80
2022-09-30T03:05:00.287Z,2.80
2022-09-30T03:06:36.306Z,2.80
2022-09-30T03:08:09.858Z,2.80
2022-09-30T03:09:43.253Z,2.80
2022-09-30T03:11:20.156Z,2.80
2022-09-30T03:13:17.286Z,2.80
2022-09-30T03:15:14.353Z,2.70
2022-09-30T03:17:21.356Z,2.80
2022-09-30T03:19:25.870Z,2.80
2022-09-30T03:21:18.248Z,2.70
2022-09-30T03:23:24.481Z,2.70
2022-09-30T03:25:17.127Z,2.70
2022-09-30T03:27:06.452Z,2.70
2022-09-30T03:28:53.084Z,2.70
2022-09-30T03:30:28.515Z,2.70
2022-09-30T03:32:19.476Z,2.70
2022-09-30T03:34:03.907Z,2.70
2022-09-30T03:35:53.851Z,2.60
2022-09-30T03:37:34.171Z,2.60
2022-09-30T03:39:25.834Z,2.60
2022-09-30T03:41:08.262Z,2.60
2022-09-30T03:42:48.051Z,2.60
2022-09-30T03:44:30.654Z,2.60
2022-09-30T03:46:19.345Z,2.60
2022-09-30T03:47:59.625Z,2.50
2022-09-30T03:49:41.018Z,2.60
2022-09-30T03:51:16.099Z,2.50
2022-09-30T03:52:49.984Z,2.50
2022-09-30T03:54:24.766Z,2.50
2022-09-30T03:55:58.448Z,2.50
2022-09-30T03:57:32.178Z,2.50
2022-09-30T03:59:06.472Z,2.50
2022-09-30T04:00:44.172Z,2.50
2022-09-30T04:02:17.845Z,2.40
2022-09-30T04:03:52.757Z,2.40
2022-09-30T04:05:26.215Z,2.40
2022-09-30T04:06:59.419Z,2.40
2022-09-30T04:08:33.994Z,2.40
2022-09-30T04:10:10.258Z,2.40
2022-09-30T04:11:43.884Z,2.40
2022-09-30T04:13:16.158Z,2.40
2022-09-30T04:14:49.468Z,2.40
2022-09-30T04:16:22.056Z,2.40
2022-09-30T04:17:55.647Z,2.50
2022-09-30T04:19:28.907Z,2.40
2022-09-30T04:21:05.738Z,2.40
2022-09-30T04:22:39.236Z,2.40
2022-09-30T04:24:12.459Z,2.40
2022-09-30T04:25:53.909Z,2.40
2022-09-30T04:27:27.346Z,2.30
2022-09-30T04:29:00.678Z,2.40
2022-09-30T04:30:33.942Z,2.30
2022-09-30T04:32:07.805Z,2.30
2022-09-30T04:33:40.858Z,2.30
2022-09-30T04:35:14.647Z,2.30
2022-09-30T04:36:47.990Z,2.30
2022-09-30T04:38:21.687Z,2.30
2022-09-30T04:39:55.456Z,2.20
2022-09-30T04:41:32.465Z,2.20
2022-09-30T04:43:06.107Z,2.20
2022-09-30T04:44:39.424Z,2.20
2022-09-30T04:46:12.900Z,2.20
2022-09-30T04:47:46.571Z,2.20
2022-09-30T04:49:20.431Z,2.20
2022-09-30T04:50:54.077Z,2.10
2022-09-30T04:52:27.578Z,2.20
2022-09-30T04:54:01.400Z,2.10
2022-09-30T04:55:35.059Z,2.10
2022-09-30T04:57:10.519Z,2.10
2022-09-30T04:58:43.963Z,2.20
2022-09-30T05:00:17.894Z,2.10
2022-09-30T05:01:51.085Z,2.10
2022-09-30T05:03:24.489Z,2.10
2022-09-30T05:04:57.747Z,2.10
2022-09-30T05:06:30.038Z,2.10
2022-09-30T05:08:05.110Z,2.10
2022-09-30T05:09:38.671Z,2.10
2022-09-30T05:11:18.425Z,2.10
2022-09-30T05:12:54.449Z,2.10
2022-09-30T05:14:28.233Z,2.10
2022-09-30T05:16:02.526Z,2.10
2022-09-30T05:17:36.501Z,2.10
2022-09-30T05:19:10.007Z,2.10
2022-09-30T05:20:42.763Z,2.10
2022-09-30T05:22:16.480Z,2.10
2022-09-30T05:23:50.311Z,2.10
2022-09-30T05:25:24.630Z,2.10
2022-09-30T05:26:58.055Z,2.10
2022-09-30T05:28:34.018Z,2.10
2022-09-30T05:30:10.892Z,2.10
2022-09-30T05:31:44.366Z,2.00
2022-09-30T05:33:17.063Z,2.00
2022-09-30T05:34:50.310Z,2.00
2022-09-30T05:36:23.878Z,2.00
2022-09-30T05:37:56.123Z,2.00
2022-09-30T05:39:29.640Z,2.00
2022-09-30T05:41:11.201Z,2.00
2022-09-30T05:42:47.161Z,2.00
2022-09-30T05:44:21.800Z,2.00
2022-09-30T05:45:57.055Z,2.00
2022-09-30T05:47:30.278Z,2.00
2022-09-30T05:49:03.580Z,2.00
2022-09-30T05:50:37.466Z,2.00
2022-09-30T05:52:11.899Z,2.00
2022-09-30T05:53:45.194Z,2.00
2022-09-30T05:55:20.295Z,2.00
2022-09-30T05:56:53.638Z,2.00
2022-09-30T05:58:27.319Z,2.00
2022-09-30T06:00:02.880Z,2.00
2022-09-30T06:01:58.810Z,2.00
2022-09-30T06:03:32.214Z,2.00
2022-09-30T06:05:06.147Z,2.00
2022-09-30T06:06:39.668Z,2.00
2022-09-30T06:08:13.934Z,2.00
2022-09-30T06:09:47.848Z,2.00
2022-09-30T06:11:24.924Z,2.00
2022-09-30T06:13:01.088Z,2.00
2022-09-30T06:14:34.924Z,2.00
2022-09-30T06:16:09.871Z,2.00
2022-09-30T06:17:43.959Z,2.00
2022-09-30T06:19:17.458Z,2.00
2022-09-30T06:20:50.705Z,2.00
2022-09-30T06:22:24.656Z,2.00
2022-09-30T06:23:58.108Z,2.00
2022-09-30T06:25:32.610Z,2.00
2022-09-30T06:27:06.164Z,2.10
2022-09-30T06:28:40.906Z,2.10
2022-09-30T06:30:14.443Z,2.10
2022-09-30T06:31:48.474Z,2.10
2022-09-30T06:33:23.671Z,2.10
2022-09-30T06:34:57.304Z,2.10
2022-09-30T06:36:32.054Z,2.10
2022-09-30T06:38:05.384Z,2.10
2022-09-30T06:39:38.652Z,2.20
2022-09-30T06:41:12.173Z,2.20
2022-09-30T06:42:46.005Z,2.20
2022-09-30T06:44:19.341Z,2.20
2022-09-30T06:45:54.127Z,2.20
2022-09-30T06:47:29.746Z,2.30
2022-09-30T06:49:13.079Z,2.30
2022-09-30T06:50:56.777Z,2.30
2022-09-30T06:52:36.087Z,2.30
2022-09-30T06:54:09.997Z,2.30
2022-09-30T06:55:43.523Z,2.30
2022-09-30T06:57:22.224Z,2.40
2022-09-30T06:58:57.101Z,2.40
2022-09-30T07:00:30.421Z,2.40
2022-09-30T07:02:03.720Z,2.40
2022-09-30T07:03:37.737Z,2.40
2022-09-30T07:05:13.252Z,2.40
2022-09-30T07:06:47.359Z,2.50
2022-09-30T07:08:20.867Z,2.50
2022-09-30T07:09:59.450Z,2.50
2022-09-30T07:11:33.269Z,2.50
2022-09-30T07:13:06.776Z,2.60
2022-09-30T07:14:40.111Z,2.60
2022-09-30T07:16:14.506Z,2.60
2022-09-30T07:17:52.883Z,2.60
2022-09-30T07:19:26.144Z,2.70
2022-09-30T07:21:00.823Z,2.70
2022-09-30T07:22:34.537Z,2.70
2022-09-30T07:24:09.225Z,2.80
2022-09-30T07:25:54.216Z,2.80
2022-09-30T07:27:31.583Z,2.80
2022-09-30T07:29:07.154Z,2.90
2022-09-30T07:30:44.112Z,2.90
2022-09-30T07:32:19.421Z,2.90
2022-09-30T07:33:54.475Z,3.00
2022-09-30T07:35:30.490Z,3.00
2022-09-30T07:37:05.893Z,3.10
2022-09-30T07:38:43.224Z,3.10
2022-09-30T07:40:16.547Z,3.20
2022-09-30T07:41:50.039Z,3.20
2022-09-30T07:43:23.734Z,3.20
2022-09-30T07:44:57.203Z,3.30
2022-09-30T07:46:33.606Z,3.30
2022-09-30T07:48:26.904Z,3.40
2022-09-30T07:50:00.397Z,3.50
2022-09-30T07:51:38.428Z,3.50
2022-09-30T07:53:13.044Z,3.60
2022-09-30T07:54:50.442Z,3.60
2022-09-30T07:56:27.319Z,3.80
2022-09-30T07:58:01.455Z,3.80
2022-09-30T07:59:38.469Z,3.90
2022-09-30T08:01:12.342Z,4.00
2022-09-30T08:02:45.684Z,4.00
2022-09-30T08:04:21.834Z,4.10
2022-09-30T08:05:55.491Z,4.20
2022-09-30T08:07:29.263Z,4.30
2022-09-30T08:09:05.211Z,4.40
2022-09-30T08:10:38.581Z,4.50
2022-09-30T08:12:12.040Z,4.60
2022-09-30T08:13:45.459Z,4.70
2022-09-30T08:15:18.832Z,4.80
2022-09-30T08:16:53.158Z,4.90
2022-09-30T08:18:27.550Z,5.00
2022-09-30T08:20:01.212Z,5.00
2022-09-30T08:21:34.536Z,5.20
2022-09-30T08:23:08.459Z,5.30
2022-09-30T08:24:43.066Z,5.40
2022-09-30T08:26:17.737Z,5.50
2022-09-30T08:27:51.674Z,5.60
2022-09-30T08:29:50.029Z,5.70
2022-09-30T08:31:21.517Z,5.90
2022-09-30T08:32:55.069Z,6.00
2022-09-30T08:34:33.715Z,6.10
2022-09-30T08:36:10.202Z,6.20
2022-09-30T08:37:43.979Z,6.30
2022-09-30T08:39:17.420Z,6.50
2022-09-30T08:41:10.348Z,6.60
2022-09-30T08:43:14.543Z,6.70
2022-09-30T08:44:50.390Z,6.90
2022-09-30T08:46:41.223Z,7.00
2022-09-30T08:48:37.368Z,7.10
2022-09-30T08:50:24.553Z,7.30
2022-09-30T08:52:02.350Z,7.50
2022-09-30T08:53:42.576Z,7.60
2022-09-30T08:55:22.744Z,7.70
2022-09-30T08:56:58.675Z,7.90
2022-09-30T08:58:35.071Z,8.00
2022-09-30T09:00:16.032Z,8.10
2022-09-30T09:01:56.471Z,8.20
2022-09-30T09:03:34.010Z,8.40
2022-09-30T09:05:12.528Z,8.50
2022-09-30T09:06:57.360Z,8.70
2022-09-30T09:08:51.742Z,8.80
2022-09-30T09:10:38.004Z,8.90
2022-09-30T09:12:31.133Z,9.10
2022-09-30T09:14:19.816Z,9.20
2022-09-30T09:16:09.726Z,9.40
2022-09-30T09:18:23.169Z,9.50
2022-09-30T09:20:12.618Z,9.70
2022-09-30T09:21:57.125Z,9.80
2022-09-30T09:23:34.243Z,9.90
2022-09-30T09:25:14.002Z,10.10
2022-09-30T09:26:49.260Z,10.20
2022-09-30T09:28:37.070Z,10.30
2022-09-30T09:30:14.499Z,10.40
2022-09-30T09:31:48.886Z,10.50
2022-09-30T09:33:30.949Z,10.60
2022-09-30T09:35:15.497Z,10.80
2022-09-30T09:37:06.211Z,10.80
2022-09-30T09:39:01.403Z,11.00
2022-09-30T09:40:57.084Z,11.10
2022-09-30T09:42:56.022Z,11.20
2022-09-30T09:44:39.666Z,11.40
2022-09-30T09:46:24.690Z,11.50
2022-09-30T09:47:59.568Z,11.60
2022-09-30T09:49:35.963Z,11.70
2022-09-30T09:51:22.609Z,11.80
2022-09-30T09:53:22.000Z,11.90
2022-09-30T09:54:56.766Z,12.10
2022-09-30T09:56:33.310Z,12.20
2022-09-30T09:58:11.112Z,12.30
2022-09-30T10:01:34.493Z,12.50
2022-09-30T10:03:18.586Z,12.60
2022-09-30T10:04:59.900Z,12.70
2022-09-30T10:06:46.726Z,12.80
2022-09-30T10:08:23.848Z,13.00
2022-09-30T10:10:23.496Z,13.00
2022-09-30T10:12:32.128Z,13.20
2022-09-30T10:14:05.401Z,13.30
2022-09-30T10:15:44.237Z,13.40
2022-09-30T10:17:25.648Z,13.50
2022-09-30T10:19:00.351Z,13.50
2022-09-30T10:20:37.855Z,13.60
2022-09-30T10:22:30.584Z,13.70
2022-09-30T10:24:27.260Z,13.80
2022-09-30T10:26:07.944Z,13.90
2022-09-30T10:27:52.209Z,13.90
2022-09-30T10:29:31.803Z,14.00
2022-09-30T10:31:14.321Z,14.10
2022-09-30T10:32:47.720Z,14.20
2022-09-30T10:34:29.510Z,14.20
2022-09-30T10:36:12.537Z,14.30
2022-09-30T10:37:54.381Z,14.40
2022-09-30T10:39:31.086Z,14.50
2022-09-30T10:41:06.968Z,14.60
2022-09-30T10:42:42.831Z,14.70
2022-09-30T10:44:21.857Z,14.80
2022-09-30T10:46:20.778Z,14.80
2022-09-30T10:47:55.078Z,14.90
2022-09-30T10:49:36.734Z,15.00
2022-09-30T10:51:26.040Z,15.00
2022-09-30T10:53:05.573Z,15.20
2022-09-30T10:54:55.623Z,15.20
2022-09-30T10:56:46.375Z,15.30
2022-09-30T10:58:40.618Z,15.40
2022-09-30T11:00:21.767Z,15.50
2022-09-30T11:02:05.232Z,15.50
2022-09-30T11:03:57.516Z,15.60
2022-09-30T11:05:37.003Z,15.60
2022-09-30T11:07:22.734Z,15.70
2022-09-30T11:09:04.371Z,15.70
2022-09-30T11:10:47.126Z,15.80
2022-09-30T11:12:30.169Z,15.80
2022-09-30T11:14:20.457Z,15.90
2022-09-30T11:16:04.519Z,15.90
2022-09-30T11:17:49.579Z,16.00
2022-09-30T11:19:32.194Z,16.00
2022-09-30T11:21:13.828Z,16.10
2022-09-30T11:22:57.575Z,16.20
2022-09-30T11:24:40.344Z,16.20
2022-09-30T11:26:27.287Z,16.30
2022-09-30T11:28:26.764Z,16.30
2022-09-30T11:30:11.601Z,16.30
2022-09-30T11:31:57.382Z,16.40
2022-09-30T11:33:48.448Z,16.40
2022-09-30T11:35:44.972Z,16.40
2022-09-30T11:37:33.320Z,16.40
2022-09-30T11:39:49.630Z,16.40
2022-09-30T11:41:29.782Z,16.50
2022-09-30T11:43:31.168Z,16.50
2022-09-30T11:45:22.841Z,16.50
2022-09-30T11:47:16.179Z,16.50
2022-09-30T11:49:19.159Z,16.60
2022-09-30T11:51:09.320Z,16.50
2022-09-30T11:52:57.689Z,16.50
2022-09-30T11:54:53.988Z,16.50
2022-09-30T11:56:43.132Z,16.50
2022-09-30T11:58:40.530Z,16.50
2022-09-30T12:00:18.797Z,16.50
2022-09-30T12:01:56.631Z,16.40
2022-09-30T12:03:39.378Z,16.40
2022-09-30T12:05:21.075Z,16.40
2022-09-30T12:07:00.207Z,16.40
2022-09-30T12:08:41.891Z,16.40
2022-09-30T12:10:24.214Z,16.40
2022-09-30T12:12:03.238Z,16.40
2022-09-30T12:13:43.448Z,16.40
2022-09-30T12:15:21.355Z,16.50
2022-09-30T12:16:57.644Z,16.40
2022-09-30T12:18:39.249Z,16.40
2022-09-30T12:20:26.118Z,16.40
2022-09-30T12:22:12.212Z,16.50
2022-09-30T12:23:55.931Z,16.50
2022-09-30T12:25:37.934Z,16.50
2022-09-30T12:27:20.968Z,16.50
2022-09-30T12:29:19.387Z,16.50
2022-09-30T12:31:03.914Z,16.50
2022-09-30T12:33:26.519Z,16.50
2022-09-30T12:35:21.347Z,16.50
2022-09-30T12:37:27.460Z,16.50
2022-09-30T12:40:11.403Z,16.50
2022-09-30T12:42:17.884Z,16.60
2022-09-30T12:44:49.123Z,16.60
2022-09-30T12:46:45.243Z,16.70
2022-09-30T12:48:24.530Z,16.70
2022-09-30T12:50:04.063Z,16.70
2022-09-30T12:51:44.232Z,16.70
2022-09-30T12:53:25.232Z,16.70
2022-09-30T12:55:03.511Z,16.70
2022-09-30T12:56:39.135Z,16.70
2022-09-30T12:58:29.808Z,16.80
2022-09-30T13:00:16.256Z,16.80
2022-09-30T13:01:50.344Z,16.80
2022-09-30T13:03:26.507Z,16.80
2022-09-30T13:05:55.005Z,16.90
2022-09-30T13:07:28.363Z,16.90
2022-09-30T13:09:22.326Z,16.90
2022-09-30T13:11:00.572Z,17.00
2022-09-30T13:12:46.615Z,17.00
2022-09-30T13:14:35.782Z,17.00
2022-09-30T13:16:11.323Z,17.00
2022-09-30T13:17:45.791Z,17.00
2022-09-30T13:19:22.336Z,17.00
2022-09-30T13:20:58.743Z,17.10
2022-09-30T13:22:58.843Z,17.00
2022-09-30T13:25:13.520Z,17.00
2022-09-30T13:26:50.892Z,17.00
2022-09-30T13:28:32.163Z,17.10
2022-09-30T13:30:37.732Z,17.10
2022-09-30T13:32:12.195Z,17.10
2022-09-30T13:33:48.631Z,17.20
2022-09-30T13:35:33.899Z,17.10
2022-09-30T13:37:42.898Z,17.10
2022-09-30T13:39:24.198Z,17.20
2022-09-30T13:41:07.308Z,17.10
2022-09-30T13:42:51.258Z,17.10
2022-09-30T13:44:35.055Z,17.20
2022-09-30T13:46:19.085Z,17.20
2022-09-30T13:48:10.853Z,17.20
2022-09-30T13:49:57.217Z,17.20
2022-09-30T13:51:34.076Z,17.20
2022-09-30T13:53:16.751Z,17.20
2022-09-30T13:54:52.219Z,17.10
2022-09-30T13:56:30.917Z,17.10
2022-09-30T13:58:27.842Z,17.10
2022-09-30T14:00:09.428Z,17.10
2022-09-30T14:02:38.359Z,17.10
2022-09-30T14:04:56.816Z,17.10
2022-09-30T14:06:46.830Z,17.10
2022-09-30T14:09:08.380Z,17.10
2022-09-30T14:11:03.506Z,17.10
2022-09-30T14:12:54.951Z,17.00
2022-09-30T14:15:12.873Z,17.00
2022-09-30T14:17:15.088Z,17.00
2022-09-30T14:19:22.164Z,17.00
2022-09-30T14:21:16.540Z,16.90
2022-09-30T14:22:50.426Z,16.90
2022-09-30T14:24:27.829Z,16.90
2022-09-30T14:26:23.753Z,16.80
2022-09-30T14:28:05.298Z,16.90
2022-09-30T14:29:58.572Z,16.80
2022-09-30T14:31:33.926Z,16.80
2022-09-30T14:33:21.787Z,16.80
2022-09-30T14:34:56.433Z,16.80
2022-09-30T14:36:30.430Z,16.70
2022-09-30T14:38:14.272Z,16.70
2022-09-30T14:39:49.895Z,16.70
2022-09-30T14:41:25.585Z,16.70
2022-09-30T14:43:03.223Z,16.70
2022-09-30T14:44:39.533Z,16.70
2022-09-30T14:46:27.449Z,16.70
2022-09-30T14:48:08.101Z,16.70
2022-09-30T14:49:43.962Z,16.70
2022-09-30T14:51:23.713Z,16.60
2022-09-30T14:52:58.714Z,16.60
2022-09-30T14:54:34.596Z,16.60
2022-09-30T14:56:23.582Z,16.60
2022-09-30T14:58:21.636Z,16.60
2022-09-30T15:00:28.955Z,16.50
2022-09-30T15:02:13.964Z,16.50
2022-09-30T15:03:53.226Z,16.50
2022-09-30T15:05:29.594Z,16.50
2022-09-30T15:07:07.168Z,16.40
2022-09-30T15:08:41.344Z,16.40
2022-09-30T15:10:22.226Z,16.40
2022-09-30T15:11:59.127Z,16.40
2022-09-30T15:13:34.616Z,16.40
2022-09-30T15:15:34.451Z,16.30
2022-09-30T15:17:20.244Z,16.30
2022-09-30T15:18:54.454Z,16.30
2022-09-30T15:20:34.467Z,16.30
2022-09-30T15:22:10.786Z,16.30
2022-09-30T15:23:51.450Z,16.20
2022-09-30T15:25:24.651Z,16.30
2022-09-30T15:26:59.201Z,16.20
2022-09-30T15:28:34.912Z,16.20
2022-09-30T15:30:28.981Z,16.20
2022-09-30T15:32:22.875Z,16.20
2022-09-30T15:34:13.903Z,16.20
2022-09-30T15:35:53.334Z,16.10
2022-09-30T15:37:33.513Z,16.10
2022-09-30T15:39:20.678Z,16.10
2022-09-30T15:41:00.749Z,16.10
2022-09-30T15:42:39.552Z,16.00
2022-09-30T15:44:20.419Z,16.00
2022-09-30T15:45:58.165Z,16.00
2022-09-30T15:47:31.995Z,16.00
2022-09-30T15:49:31.771Z,15.80
2022-09-30T15:51:35.389Z,15.90
2022-09-30T15:53:24.183Z,15.80
2022-09-30T15:54:59.379Z,15.80
2022-09-30T15:56:36.823Z,15.80
2022-09-30T15:58:37.557Z,15.70
2022-09-30T16:00:39.480Z,15.70
2022-09-30T16:02:14.354Z,15.60
2022-09-30T16:03:54.951Z,15.60
2022-09-30T16:05:28.917Z,15.60
2022-09-30T16:07:11.171Z,15.50
2022-09-30T16:08:49.722Z,15.40
2022-09-30T16:10:24.031Z,15.40
2022-09-30T16:12:08.709Z,15.30
2022-09-30T16:13:45.223Z,15.30
2022-09-30T16:15:19.132Z,15.20
2022-09-30T16:16:57.252Z,15.10
2022-09-30T16:18:34.798Z,15.10
2022-09-30T16:20:23.675Z,15.00
2022-09-30T16:21:58.970Z,14.90
2022-09-30T16:23:38.938Z,14.90
2022-09-30T16:25:20.519Z,14.70
2022-09-30T16:26:55.884Z,14.70
2022-09-30T16:28:29.568Z,14.70
2022-09-30T16:30:04.971Z,14.60
2022-09-30T16:31:39.029Z,14.40
2022-09-30T16:33:16.384Z,14.40
2022-09-30T16:34:51.914Z,14.30
2022-09-30T16:36:30.282Z,14.30
2022-09-30T16:38:13.288Z,14.20
2022-09-30T16:39:45.813Z,14.10
2022-09-30T16:41:26.596Z,14.10
2022-09-30T16:43:04.367Z,14.00
2022-09-30T16:44:48.803Z,13.90
2022-09-30T16:46:27.552Z,13.90
2022-09-30T16:48:03.872Z,13.80
2022-09-30T16:49:39.654Z,13.70
2022-09-30T16:51:24.613Z,13.60
2022-09-30T16:53:01.564Z,13.50
2022-09-30T16:54:35.655Z,13.50
2022-09-30T16:56:17.275Z,13.40
2022-09-30T16:57:51.274Z,13.30
2022-09-30T16:59:27.832Z,13.30
2022-09-30T17:01:02.716Z,13.20
2022-09-30T17:02:40.930Z,13.10
2022-09-30T17:04:18.535Z,13.10
2022-09-30T17:05:53.758Z,13.00
2022-09-30T17:07:44.097Z,12.90
2022-09-30T17:09:22.751Z,12.90
2022-09-30T17:11:05.359Z,12.80
2022-09-30T17:12:41.672Z,12.80
2022-09-30T17:14:17.670Z,12.70
2022-09-30T17:16:01.784Z,12.60
2022-09-30T17:17:37.316Z,12.60
2022-09-30T17:19:17.467Z,12.50
2022-09-30T17:20:54.586Z,12.50
2022-09-30T17:22:29.693Z,12.40
2022-09-30T17:24:04.537Z,12.40
2022-09-30T17:25:42.371Z,12.30
2022-09-30T17:27:18.096Z,12.30
2022-09-30T17:28:51.568Z,12.40
2022-09-30T17:30:24.861Z,12.20
2022-09-30T17:32:04.414Z,12.10
2022-09-30T17:33:42.329Z,12.10
2022-09-30T17:35:16.651Z,12.10
2022-09-30T17:36:52.204Z,12.00
2022-09-30T17:38:25.824Z,12.00
2022-09-30T17:39:59.114Z,12.00
2022-09-30T17:41:50.138Z,11.90
2022-09-30T17:43:23.534Z,11.90
2022-09-30T17:44:57.448Z,11.90
2022-09-30T17:46:43.534Z,11.90
2022-09-30T17:48:19.212Z,11.80
2022-09-30T17:49:52.777Z,11.80
2022-09-30T17:51:26.179Z,11.80
2022-09-30T17:53:02.343Z,11.70
2022-09-30T17:54:35.976Z,11.70
2022-09-30T17:56:19.332Z,11.60
2022-09-30T17:57:55.712Z,11.50
2022-09-30T17:59:30.096Z,11.50
2022-09-30T18:01:08.024Z,11.50
2022-09-30T18:02:44.693Z,11.40
2022-09-30T18:04:19.562Z,11.40
2022-09-30T18:05:59.167Z,11.30
2022-09-30T18:07:32.820Z,11.30
2022-09-30T18:09:07.935Z,11.20
2022-09-30T18:10:42.191Z,11.20
2022-09-30T18:12:16.124Z,11.10
2022-09-30T18:13:57.851Z,11.10
2022-09-30T18:15:31.768Z,11.00
2022-09-30T18:17:07.378Z,11.00
2022-09-30T18:18:41.069Z,10.90
2022-09-30T18:20:15.439Z,10.90
2022-09-30T18:21:49.238Z,10.90
2022-09-30T18:23:22.759Z,10.90
2022-09-30T18:25:15.235Z,10.80
2022-09-30T18:26:48.559Z,10.80
2022-09-30T18:28:22.111Z,10.70
2022-09-30T18:29:55.651Z,10.70
2022-09-30T18:31:37.462Z,10.70
2022-09-30T18:33:12.259Z,10.60
2022-09-30T18:34:45.677Z,10.60
2022-09-30T18:36:19.060Z,10.50
2022-09-30T18:37:54.410Z,10.50
2022-09-30T18:39:27.726Z,10.40
2022-09-30T18:41:02.676Z,10.50
2022-09-30T18:42:37.990Z,10.40
2022-09-30T18:44:11.982Z,10.40
2022-09-30T18:45:56.110Z,10.40
2022-09-30T18:47:30.301Z,10.30
2022-09-30T18:49:03.943Z,10.30
2022-09-30T18:50:37.365Z,10.20
2022-09-30T18:52:11.123Z,10.20
2022-09-30T18:53:44.649Z,10.20
2022-09-30T18:55:18.714Z,10.20
2022-09-30T18:56:53.477Z,10.10
2022-09-30T18:58:27.618Z,10.10
2022-09-30T19:00:02.177Z,10.00
2022-09-30T19:01:36.649Z,10.00
2022-09-30T19:03:14.012Z,10.00
2022-09-30T19:04:48.580Z,9.90
2022-09-30T19:06:22.624Z,9.90
2022-09-30T19:07:57.319Z,9.90
2022-09-30T19:09:30.759Z,9.80
2022-09-30T19:11:16.697Z,9.80
2022-09-30T19:12:52.130Z,9.80
2022-09-30T19:14:25.540Z,9.80
2022-09-30T19:16:05.330Z,9.70
2022-09-30T19:17:39.039Z,9.70
2022-09-30T19:19:12.688Z,9.70
2022-09-30T19:20:46.112Z,9.60
2022-09-30T19:22:20.232Z,9.60
2022-09-30T19:23:58.279Z,9.60
2022-09-30T19:25:31.855Z,9.50
2022-09-30T19:27:06.663Z,9.50
2022-09-30T19:28:41.980Z,9.50
2022-09-30T19:30:15.858Z,9.40
2022-09-30T19:31:49.312Z,9.40
2022-09-30T19:33:25.191Z,9.50
2022-09-30T19:35:05.095Z,9.40
2022-09-30T19:36:50.113Z,9.30
2022-09-30T19:38:35.106Z,9.30
2022-09-30T19:40:20.793Z,9.30
2022-09-30T19:42:00.337Z,9.20
2022-09-30T19:43:41.038Z,9.20
2022-09-30T19:45:17.407Z,9.10
2022-09-30T19:46:54.768Z,9.10
2022-09-30T19:48:29.718Z,9.10
2022-09-30T19:50:03.541Z,9.00
2022-09-30T19:51:36.808Z,9.00
2022-09-30T19:53:11.154Z,9.00
2022-09-30T19:54:47.284Z,8.90
2022-09-30T19:56:23.115Z,8.90
2022-09-30T19:57:56.352Z,8.80
2022-09-30T19:59:30.183Z,8.80
2022-09-30T20:01:06.785Z,8.70
2022-09-30T20:02:40.246Z,8.70
2022-09-30T20:04:16.970Z,8.60
2022-09-30T20:05:50.777Z,8.70
2022-09-30T20:07:24.133Z,8.60
2022-09-30T20:09:00.888Z,8.50
2022-09-30T20:10:34.775Z,8.50
2022-09-30T20:12:08.104Z,8.50
2022-09-30T20:13:43.096Z,8.40
2022-09-30T20:15:34.616Z,8.40
2022-09-30T20:17:09.586Z,8.30
2022-09-30T20:18:44.860Z,8.30
2022-09-30T20:20:37.393Z,8.20
2022-09-30T20:22:11.326Z,8.20
2022-09-30T20:23:45.826Z,8.20
2022-09-30T20:25:19.250Z,8.10
2022-09-30T20:26:53.044Z,8.10
2022-09-30T20:28:26.785Z,8.10
2022-09-30T20:30:00.413Z,8.00
2022-09-30T20:31:33.838Z,8.00
2022-09-30T20:33:08.819Z,7.90
2022-09-30T20:34:42.220Z,7.90
2022-09-30T20:36:16.231Z,7.90
2022-09-30T20:37:50.059Z,7.90
2022-09-30T20:39:24.052Z,7.80
2022-09-30T20:40:58.160Z,7.80
2022-09-30T20:42:32.782Z,7.80
2022-09-30T20:44:08.551Z,7.70
2022-09-30T20:45:42.183Z,7.70
2022-09-30T20:47:15.594Z,7.70
2022-09-30T20:48:51.226Z,7.60
2022-09-30T20:50:34.878Z,7.60
2022-09-30T20:52:09.250Z,7.60
2022-09-30T20:53:46.837Z,7.50
2022-09-30T20:55:21.149Z,7.50
2022-09-30T20:57:09.398Z,7.50
2022-09-30T20:58:46.550Z,7.50
2022-09-30T21:00:20.424Z,7.50
2022-09-30T21:01:53.916Z,7.40
2022-09-30T21:03:29.411Z,7.40
2022-09-30T21:05:04.839Z,7.40
2022-09-30T21:06:38.223Z,7.30
2022-09-30T21:08:11.951Z,7.30
2022-09-30T21:09:45.668Z,7.30
2022-09-30T21:11:20.257Z,7.30
2022-09-30T21:12:55.091Z,7.30
2022-09-30T21:14:28.798Z,7.30
2022-09-30T21:16:04.831Z,7.20
2022-09-30T21:17:38.169Z,7.20
2022-09-30T21:19:11.925Z,7.20
2022-09-30T21:20:57.535Z,7.20
2022-09-30T21:22:31.019Z,7.20
2022-09-30T21:24:04.825Z,7.20
2022-09-30T21:25:38.782Z,7.20
2022-09-30T21:27:12.119Z,7.20
2022-09-30T21:28:49.393Z,7.20
2022-09-30T21:30:23.367Z,7.20
2022-09-30T21:31:56.835Z,7.20
2022-09-30T21:33:29.310Z,7.20
2022-09-30T21:35:02.545Z,7.20
2022-09-30T21:36:38.783Z,7.20
2022-09-30T21:38:16.244Z,7.20
2022-09-30T21:39:48.527Z,7.20
2022-09-30T21:41:22.828Z,7.20
2022-09-30T21:42:56.132Z,7.20
2022-09-30T21:44:29.427Z,7.20
2022-09-30T21:46:05.993Z,7.20
2022-09-30T21:47:38.623Z,7.20
2022-09-30T21:49:18.240Z,7.20
2022-09-30T21:50:50.607Z,7.20
2022-09-30T21:52:28.535Z,7.20
2022-09-30T21:54:04.047Z,7.20
2022-09-30T21:55:37.938Z,7.20
2022-09-30T21:57:11.545Z,7.20
2022-09-30T21:58:44.843Z,7.20
2022-09-30T22:00:21.408Z,7.20